FranceFixed distance
Luchon Aneto Trail - L'Ultra Lat
9–10 Jul2022
Distance
85km
Finishers
170157 men13 women
Winning time
10:27:06h
Median pace
5.27km/h
Pace distribution
170 finishers · 4.37–8.13 km/h · mean 5.49
Every finisher ran the same 85 km course, so these paces are directly comparable.
Histogram of finisher pace. 170 finishers ranged from 4.37 to 8.13 kilometres per hour, with a mean of 5.49 and a median of 5.27. The busiest band is 4.5 to 5.0 kilometres per hour, with 48 finishers.
Results
Ranks 51–100 of 170
| Rank | Runner | Time | Pace | Cat. | Placing |
|---|---|---|---|---|---|
| 51 | 14:40:32h | 5.79 | M23 | 47th M · 22nd M23 | |
| 52 | *Lège-Cap-Ferret | 14:41:02h | 5.79 | M35 | 48th M · 14th M35 |
| 53 | Ouirun la Rochelle | 14:47:17h | 5.75 | M35 | 49th M · 15th M35 |
| 54 | Sport Nature Chauvigny 86 | 14:47:46h | 5.75 | M23 | 50th M · 23rd M23 |
| 55 | I Rhum MAN | 14:47:47h | 5.75 | M23 | 51st M · 24th M23 |
| 56 | 14:50:05h | 5.73 | — | 52nd M | |
| 57 | Juflonik | 14:53:52h | 5.71 | M35 | 53rd M · 16th M35 |
| 58 | Team Trail 17 | 14:54:45h | 5.70 | M35 | 54th M · 17th M35 |
| 59 | les Coureurs du Soubestre | 14:56:48h | 5.69 | M40 | 55th M · 7th M40 |
| 60 | 14:57:04h | 5.68 | M23 | 56th M · 25th M23 | |
| 61 | Team Trail Cholet | 15:00:32h | 5.66 | M40 | 57th M · 8th M40 |
| 62 | 15:04:29h | 5.64 | M40 | 58th M · 9th M40 | |
| 63 | les Trailers du Marensin | 15:05:20h | 5.63 | M45 | 59th M · 3rd M45 |
| 64 | Trail EN Ségala | 15:09:28h | 5.61 | M35 | 60th M · 18th M35 |
| 65 | 15:13:13h | 5.58 | M50 | 61st M · 2nd M50 | |
| 66 | Toulouse Trail | 15:15:34h | 5.57 | M50 | 62nd M · 3rd M50 |
| 67 | 15:15:40h | 5.57 | M45 | 63rd M · 4th M45 | |
| 68 | Union Club Athlétique | 15:16:38h | 5.56 | M23 | 64th M · 26th M23 |
| 69 | FRA Helm Hill Runners | 15:17:03h | 5.56 | M40 | 65th M · 10th M40 |
| 70 | *Colomiers | 15:22:30h | 5.53 | M40 | 66th M · 11th M40 |
| 71 | 15:22:33h | 5.53 | W45 | 5th F · 2nd W45 | |
| 72 | *La Teste-De-Buch | 15:22:36h | 5.53 | M23 | 67th M · 27th M23 |
| 73 | les Barjots des Cotos | 15:30:59h | 5.48 | M55 | 68th M · 1st M55 |
| 74 | AB Trail | 15:31:10h | 5.48 | W40 | 6th F · 1st W40 |
| 75 | 15:35:53h | 5.45 | M23 | 69th M · 28th M23 | |
| 76 | *Toulouse | 15:37:52h | 5.44 | M23 | 70th M · 29th M23 |
| 77 | *Cherveux | 15:38:22h | 5.43 | M45 | 71st M · 5th M45 |
| 78 | *Montréal | 15:41:15h | 5.42 | M23 | 72nd M · 30th M23 |
| 79 | Patatrail | 15:42:33h | 5.41 | — | 73rd M |
| 80 | Asvtt Boienne | 15:53:35h | 5.35 | — | 74th M |
| 81 | AST Trihatlon | 15:53:39h | 5.35 | M23 | 75th M · 31st M23 |
| 82 | *Cornebarrieu | 15:55:45h | 5.34 | M23 | 76th M · 32nd M23 |
| 83 | *Corneilla-Del-Vercol | 15:58:09h | 5.32 | M23 | 77th M · 33rd M23 |
| 84 | Rapv | 15:58:10h | 5.32 | M35 | 78th M · 19th M35 |
| 85 | *Lescar | 15:59:35h | 5.32 | M40 | 79th M · 12th M40 |
| 86 | *Toulouse | 16:07:52h | 5.27 | M23 | 80th M · 34th M23 |
| 87 | *La Planche | 16:08:03h | 5.27 | M45 | 81st M · 6th M45 |
| 88 | AB Trail | 16:10:36h | 5.25 | M40 | 82nd M · 13th M40 |
| 89 | A.R.Sud LAC | 16:11:29h | 5.25 | M55 | 83rd M · 2nd M55 |
| 90 | Raid Landes Aventure | 16:14:26h | 5.23 | M40 | 84th M · 14th M40 |
| 91 | 16:16:23h | 5.22 | M40 | 85th M · 15th M40 | |
| 92 | 16:17:44h | 5.22 | M45 | 86th M · 7th M45 | |
| 93 | *Mérignac | 16:18:36h | 5.21 | M23 | 87th M · 35th M23 |
| 94 | *Génissac | 16:19:18h | 5.21 | M55 | 88th M · 3rd M55 |
| 95 | Rando Raid 85 | 16:21:10h | 5.20 | M23 | 89th M · 36th M23 |
| 96 | *Nantes | 16:22:21h | 5.19 | M45 | 90th M · 8th M45 |
| 97 | Teamwilltrail | 16:25:14h | 5.18 | M40 | 91st M · 16th M40 |
| 98 | *Guichen | 16:25:23h | 5.18 | M40 | 92nd M · 17th M40 |
| 99 | 16:29:12h | 5.16 | — | 93rd M | |
| 100 | Mythic Team | 16:31:12h | 5.14 | M55 | 94th M · 4th M55 |
- 5147th M · 22nd M23Time14:40:32hPace5.79Cat.M23
- 52*Lège-Cap-Ferret48th M · 14th M35Time14:41:02hPace5.79Cat.M35
- 53Ouirun la Rochelle49th M · 15th M35Time14:47:17hPace5.75Cat.M35
- 54Sport Nature Chauvigny 8650th M · 23rd M23Time14:47:46hPace5.75Cat.M23
- 55I Rhum MAN51st M · 24th M23Time14:47:47hPace5.75Cat.M23
- 5652nd MTime14:50:05hPace5.73
- 57Juflonik53rd M · 16th M35Time14:53:52hPace5.71Cat.M35
- 58Team Trail 1754th M · 17th M35Time14:54:45hPace5.70Cat.M35
- 59les Coureurs du Soubestre55th M · 7th M40Time14:56:48hPace5.69Cat.M40
- 6056th M · 25th M23Time14:57:04hPace5.68Cat.M23
- 61Team Trail Cholet57th M · 8th M40Time15:00:32hPace5.66Cat.M40
- 6258th M · 9th M40Time15:04:29hPace5.64Cat.M40
- 63les Trailers du Marensin59th M · 3rd M45Time15:05:20hPace5.63Cat.M45
- 64Trail EN Ségala60th M · 18th M35Time15:09:28hPace5.61Cat.M35
- 6561st M · 2nd M50Time15:13:13hPace5.58Cat.M50
- 66Toulouse Trail62nd M · 3rd M50Time15:15:34hPace5.57Cat.M50
- 6763rd M · 4th M45Time15:15:40hPace5.57Cat.M45
- 68Union Club Athlétique64th M · 26th M23Time15:16:38hPace5.56Cat.M23
- 69FRA Helm Hill Runners65th M · 10th M40Time15:17:03hPace5.56Cat.M40
- 70*Colomiers66th M · 11th M40Time15:22:30hPace5.53Cat.M40
- 715th F · 2nd W45Time15:22:33hPace5.53Cat.W45
- 72*La Teste-De-Buch67th M · 27th M23Time15:22:36hPace5.53Cat.M23
- 73les Barjots des Cotos68th M · 1st M55Time15:30:59hPace5.48Cat.M55
- 74AB Trail6th F · 1st W40Time15:31:10hPace5.48Cat.W40
- 7569th M · 28th M23Time15:35:53hPace5.45Cat.M23
- 76*Toulouse70th M · 29th M23Time15:37:52hPace5.44Cat.M23
- 77*Cherveux71st M · 5th M45Time15:38:22hPace5.43Cat.M45
- 78*Montréal72nd M · 30th M23Time15:41:15hPace5.42Cat.M23
- 79Patatrail73rd MTime15:42:33hPace5.41
- 80Asvtt Boienne74th MTime15:53:35hPace5.35
- 81AST Trihatlon75th M · 31st M23Time15:53:39hPace5.35Cat.M23
- 82*Cornebarrieu76th M · 32nd M23Time15:55:45hPace5.34Cat.M23
- 83*Corneilla-Del-Vercol77th M · 33rd M23Time15:58:09hPace5.32Cat.M23
- 84Rapv78th M · 19th M35Time15:58:10hPace5.32Cat.M35
- 85*Lescar79th M · 12th M40Time15:59:35hPace5.32Cat.M40
- 86*Toulouse80th M · 34th M23Time16:07:52hPace5.27Cat.M23
- 87*La Planche81st M · 6th M45Time16:08:03hPace5.27Cat.M45
- 88AB Trail82nd M · 13th M40Time16:10:36hPace5.25Cat.M40
- 89A.R.Sud LAC83rd M · 2nd M55Time16:11:29hPace5.25Cat.M55
- 90Raid Landes Aventure84th M · 14th M40Time16:14:26hPace5.23Cat.M40
- 9185th M · 15th M40Time16:16:23hPace5.22Cat.M40
- 9286th M · 7th M45Time16:17:44hPace5.22Cat.M45
- 93*Mérignac87th M · 35th M23Time16:18:36hPace5.21Cat.M23
- 94*Génissac88th M · 3rd M55Time16:19:18hPace5.21Cat.M55
- 95Rando Raid 8589th M · 36th M23Time16:21:10hPace5.20Cat.M23
- 96*Nantes90th M · 8th M45Time16:22:21hPace5.19Cat.M45
- 97Teamwilltrail91st M · 16th M40Time16:25:14hPace5.18Cat.M40
- 98*Guichen92nd M · 17th M40Time16:25:23hPace5.18Cat.M40
- 9993rd MTime16:29:12hPace5.16
- 100Mythic Team94th M · 4th M55Time16:31:12hPace5.14Cat.M55
Showing ranks 51–100 of 170